Time;durP1;ratioP1;P1;durP2;ratioP2;P2;SDS_P1;SDS_P2;PMS_P1;PMS_P2;Temp;Humidity;BMP_temperature;BMP_pressure;BME280_temperature;BME280_humidity;BME280_pressure;Samples;Min_cycle;Max_cycle;Signal;HPM_P1;HPM_P2
2023/07/18 00:00:37;;;;;;;5.75;4.53;;;;;;;;;;5075308;28;20419;-55
2023/07/18 00:03:04;;;;;;;5.47;3.90;;;27.70;99.90;;;;;;5075316;28;20024;-56
2023/07/18 00:05:31;;;;;;;8.18;4.32;;;;;;;;;;5073848;28;20394;-55
2023/07/18 00:07:56;;;;;;;7.15;4.72;;;27.80;99.90;;;;;;5073488;28;20040;-55
2023/07/18 00:10:23;;;;;;;5.47;4.43;;;27.70;99.90;;;;;;5073770;28;20047;-57
2023/07/18 00:12:49;;;;;;;5.68;4.38;;;27.70;99.90;;;;;;5074496;28;20105;-55
2023/07/18 00:15:15;;;;;;;6.85;3.90;;;27.80;99.90;;;;;;5075021;28;20475;-55
2023/07/18 00:17:42;;;;;;;6.82;4.03;;;27.80;99.90;;;;;;5073815;28;20353;-54
2023/07/18 00:20:12;;;;;;;5.53;4.60;;;27.90;99.90;;;;;;5054823;28;20040;-55
2023/07/18 00:22:43;;;;;;;10.93;4.13;;;27.90;99.90;;;;;;5073164;28;20475;-57
2023/07/18 00:25:13;;;;;;;5.78;4.22;;;27.80;99.90;;;;;;5074378;28;20025;-56
2023/07/18 00:27:40;;;;;;;6.30;4.30;;;27.80;99.90;;;;;;5073439;28;20082;-55
2023/07/18 00:30:07;;;;;;;4.88;3.90;;;27.80;99.90;;;;;;5073335;28;20036;-55
2023/07/18 00:32:33;;;;;;;7.57;4.63;;;27.90;99.90;;;;;;5073184;28;20016;-57
2023/07/18 00:34:59;;;;;;;7.53;4.82;;;27.90;99.90;;;;;;5072706;28;20085;-58
2023/07/18 00:37:24;;;;;;;7.03;4.55;;;27.90;99.90;;;;;;5073395;28;20039;-55
2023/07/18 00:39:52;;;;;;;5.72;4.38;;;27.90;99.90;;;;;;5073388;28;20099;-57
2023/07/18 00:42:18;;;;;;;7.20;4.05;;;27.90;99.90;;;;;;5073095;28;20086;-56
2023/07/18 00:44:46;;;;;;;6.70;4.80;;;27.90;99.90;;;;;;5074197;28;20032;-56
2023/07/18 00:47:12;;;;;;;5.68;4.30;;;27.90;99.90;;;;;;5073308;28;20431;-57
2023/07/18 00:49:38;;;;;;;6.63;4.28;;;;;;;;;;5072672;28;20068;-58
2023/07/18 00:52:06;;;;;;;5.55;4.35;;;27.60;99.90;;;;;;5070769;28;20064;-56
2023/07/18 00:54:33;;;;;;;14.07;4.53;;;27.60;99.90;;;;;;5074107;28;20025;-56
2023/07/18 00:56:59;;;;;;;7.88;4.60;;;27.60;99.90;;;;;;5073221;28;20087;-55
2023/07/18 00:59:27;;;;;;;6.18;4.63;;;27.60;99.90;;;;;;5073442;28;20029;-57
2023/07/18 01:01:53;;;;;;;6.45;4.20;;;27.40;99.90;;;;;;5073270;28;20036;-57
2023/07/18 01:04:19;;;;;;;6.65;4.57;;;27.40;99.90;;;;;;5072210;28;20033;-58
2023/07/18 01:06:46;;;;;;;5.72;3.70;;;27.50;99.90;;;;;;5073420;28;20017;-58
2023/07/18 01:09:12;;;;;;;8.05;4.60;;;27.50;99.90;;;;;;5073537;28;20033;-57
2023/07/18 01:11:38;;;;;;;6.22;4.22;;;27.50;99.90;;;;;;5072906;28;20021;-55
2023/07/18 01:14:04;;;;;;;8.57;4.50;;;27.40;99.90;;;;;;5072602;28;20357;-55
2023/07/18 01:16:30;;;;;;;6.78;4.53;;;27.30;99.90;;;;;;5072454;28;20391;-55
2023/07/18 01:18:56;;;;;;;7.20;4.50;;;27.30;99.90;;;;;;5073244;28;20105;-57
2023/07/18 01:21:25;;;;;;;6.47;4.20;;;27.30;99.90;;;;;;5072201;28;20487;-55
2023/07/18 01:23:50;;;;;;;5.72;4.03;;;27.30;99.90;;;;;;5070862;28;20040;-55
2023/07/18 01:26:16;;;;;;;5.60;4.00;;;27.40;99.90;;;;;;5072465;28;20029;-56
2023/07/18 01:28:42;;;;;;;4.80;4.07;;;27.40;99.90;;;;;;5073248;28;20094;-54
2023/07/18 01:31:09;;;;;;;6.40;4.07;;;27.50;99.90;;;;;;5072107;28;20022;-55
2023/07/18 01:33:34;;;;;;;7.18;4.30;;;27.40;99.90;;;;;;5071813;28;20036;-58
2023/07/18 01:36:00;;;;;;;5.18;3.90;;;27.50;99.90;;;;;;5071959;28;20029;-57
2023/07/18 01:38:29;;;;;;;6.95;4.43;;;27.50;99.90;;;;;;5072739;28;20099;-55
2023/07/18 01:40:59;;;;;;;10.05;4.72;;;27.50;99.90;;;;;;5071995;28;20404;-56
2023/07/18 01:43:25;;;;;;;6.15;4.18;;;27.60;99.90;;;;;;5072035;28;20040;-57
2023/07/18 01:45:51;;;;;;;5.05;4.30;;;27.50;99.90;;;;;;5072676;28;20439;-57
2023/07/18 01:48:18;;;;;;;7.95;4.30;;;27.40;99.90;;;;;;5072158;28;20040;-56
2023/07/18 01:50:44;;;;;;;5.13;4.18;;;27.50;99.90;;;;;;5072475;28;20107;-58
2023/07/18 01:53:13;;;;;;;7.63;4.40;;;27.40;99.90;;;;;;5071628;28;20108;-58
2023/07/18 01:55:39;;;;;;;4.78;4.13;;;27.40;99.90;;;;;;5072777;28;20040;-57
2023/07/18 01:58:05;;;;;;;6.93;4.70;;;27.40;99.90;;;;;;5072088;28;20055;-56
2023/07/18 02:00:32;;;;;;;7.03;4.75;;;27.30;99.90;;;;;;5071786;28;20036;-57
2023/07/18 02:02:58;;;;;;;10.77;4.57;;;27.20;99.90;;;;;;5071807;28;20035;-55
2023/07/18 02:05:25;;;;;;;5.65;4.55;;;;;;;;;;5072844;28;20406;-54
2023/07/18 02:07:51;;;;;;;7.32;4.43;;;27.10;99.90;;;;;;5071943;28;20036;-56
2023/07/18 02:10:20;;;;;;;5.93;4.90;;;27.10;99.90;;;;;;5071822;28;20035;-56
2023/07/18 02:12:46;;;;;;;6.20;4.00;;;27.00;99.90;;;;;;5072341;28;20041;-57
2023/07/18 02:15:15;;;;;;;5.13;4.20;;;27.10;99.90;;;;;;5071984;28;20028;-57
2023/07/18 02:17:42;;;;;;;6.45;4.80;;;27.00;99.90;;;;;;5071700;28;20024;-56
2023/07/18 02:20:11;;;;;;;9.10;4.72;;;27.00;99.90;;;;;;5073008;28;20139;-57
2023/07/18 02:22:39;;;;;;;8.35;4.75;;;27.00;99.90;;;;;;5071743;28;21031;-57
2023/07/18 02:25:06;;;;;;;5.90;4.32;;;26.90;99.90;;;;;;5071620;28;20525;-54
2023/07/18 02:27:37;;;;;;;5.78;4.72;;;26.90;99.90;;;;;;5052658;28;20037;-56
2023/07/18 02:30:05;;;;;;;;;;;26.90;99.90;;;;;;5072700;28;20028;-56
2023/07/18 02:32:31;;;;;;;9.07;5.20;;;26.90;99.90;;;;;;5072531;28;20008;-58
2023/07/18 02:34:57;;;;;;;9.43;5.20;;;26.80;99.90;;;;;;5071851;28;20048;-56
2023/07/18 02:37:24;;;;;;;7.63;5.15;;;26.80;99.90;;;;;;5071590;28;20024;-57
2023/07/18 02:39:50;;;;;;;7.45;4.50;;;26.80;99.90;;;;;;5071953;28;20028;-58
2023/07/18 02:42:17;;;;;;;9.07;5.18;;;26.80;99.90;;;;;;5071788;28;20020;-55
2023/07/18 02:44:46;;;;;;;8.13;4.65;;;26.80;99.90;;;;;;5071529;28;20031;-56
2023/07/18 02:47:13;;;;;;;6.57;4.97;;;26.70;99.90;;;;;;5073862;28;20017;-57
2023/07/18 02:49:39;;;;;;;6.70;5.10;;;26.70;99.90;;;;;;5075126;28;20068;-58
2023/07/18 02:52:05;;;;;;;7.72;5.45;;;26.60;99.90;;;;;;5075500;28;20075;-57
2023/07/18 02:54:31;;;;;;;6.57;5.20;;;26.60;99.90;;;;;;5075367;28;20032;-55
2023/07/18 02:56:58;;;;;;;10.65;5.47;;;;;;;;;;5075117;28;21615;-57
2023/07/18 02:59:24;;;;;;;7.85;6.43;;;;;;;;;;5075373;28;20024;-56
2023/07/18 03:01:50;;;;;;;5.88;5.07;;;26.60;99.90;;;;;;5075335;28;20457;-58
2023/07/18 03:04:16;;;;;;;10.75;5.50;;;26.60;99.90;;;;;;5074877;28;20037;-56
2023/07/18 03:06:43;;;;;;;10.20;5.53;;;26.60;99.90;;;;;;5074713;28;20032;-54
2023/07/18 03:09:10;;;;;;;11.40;5.93;;;;;;;;;;5057310;28;20085;-57
2023/07/18 03:11:36;;;;;;;7.95;5.90;;;;;;;;;;5074610;28;20033;-54
2023/07/18 03:14:02;;;;;;;8.10;5.63;;;;;;;;;;5074675;28;20025;-56
2023/07/18 03:16:28;;;;;;;7.97;5.43;;;26.30;99.90;;;;;;5074944;28;20108;-55
2023/07/18 03:18:54;;;;;;;8.77;5.55;;;26.30;99.90;;;;;;5075695;28;20099;-55
2023/07/18 03:21:20;;;;;;;6.07;5.38;;;26.30;99.90;;;;;;5075764;28;20027;-56
2023/07/18 03:23:46;;;;;;;10.32;5.88;;;26.30;99.90;;;;;;5074567;28;20051;-57
2023/07/18 03:26:11;;;;;;;7.10;5.43;;;26.30;99.90;;;;;;5074322;28;20456;-56
2023/07/18 03:28:37;;;;;;;8.18;5.53;;;;;;;;;;5074682;28;20166;-55
2023/07/18 03:31:03;;;;;;;6.80;5.30;;;26.20;99.90;;;;;;5075714;28;20062;-55
2023/07/18 03:33:29;;;;;;;7.40;5.25;;;26.10;99.90;;;;;;5074450;28;20059;-54
2023/07/18 03:35:54;;;;;;;8.68;5.80;;;26.10;99.90;;;;;;5074517;28;20036;-57
2023/07/18 03:38:20;;;;;;;8.43;7.25;;;26.00;99.90;;;;;;5074578;28;20017;-55
2023/07/18 03:40:50;;;;;;;9.75;6.30;;;26.00;99.90;;;;;;5075238;28;20060;-55
2023/07/18 03:43:16;;;;;;;7.25;6.25;;;26.00;99.90;;;;;;5074378;28;20055;-55
2023/07/18 03:45:41;;;;;;;8.00;6.22;;;26.10;99.90;;;;;;5074036;28;20106;-55
2023/07/18 03:48:07;;;;;;;6.68;5.80;;;26.10;99.90;;;;;;5074067;28;20036;-56
2023/07/18 03:50:33;;;;;;;9.18;5.68;;;26.10;99.90;;;;;;5075350;28;20032;-54
2023/07/18 03:52:58;;;;;;;7.25;5.90;;;26.00;99.90;;;;;;5074260;28;20058;-56
2023/07/18 03:55:24;;;;;;;10.48;5.63;;;26.10;99.90;;;;;;5074270;28;20016;-55
2023/07/18 03:57:50;;;;;;;9.13;5.57;;;26.10;99.90;;;;;;5073204;28;20488;-56
2023/07/18 04:00:17;;;;;;;8.10;6.05;;;26.10;99.90;;;;;;5074937;28;20032;-56
2023/07/18 04:02:45;;;;;;;10.55;6.43;;;26.10;99.90;;;;;;5074161;28;20024;-54
2023/07/18 04:05:13;;;;;;;7.70;5.90;;;26.10;99.90;;;;;;5073724;28;20074;-58
2023/07/18 04:07:40;;;;;;;7.93;5.38;;;26.10;99.90;;;;;;5074028;28;20021;-57
2023/07/18 04:10:06;;;;;;;9.25;5.70;;;26.10;99.90;;;;;;5075298;28;20135;-57
2023/07/18 04:12:32;;;;;;;9.80;6.85;;;26.20;99.90;;;;;;5074137;28;20028;-57
2023/07/18 04:14:58;;;;;;;9.05;6.60;;;26.20;99.90;;;;;;5073415;28;20024;-57
2023/07/18 04:17:24;;;;;;;6.93;6.25;;;26.20;99.90;;;;;;5073318;28;20038;-56
2023/07/18 04:19:52;;;;;;;8.93;5.22;;;26.20;99.90;;;;;;5074251;28;20020;-57
2023/07/18 04:22:17;;;;;;;7.82;5.85;;;26.20;99.90;;;;;;5073948;28;20033;-55
2023/07/18 04:24:43;;;;;;;12.13;6.35;;;26.30;99.90;;;;;;5073724;28;20028;-54
2023/07/18 04:27:09;;;;;;;9.65;6.30;;;26.30;99.90;;;;;;5071173;28;20032;-57
2023/07/18 04:29:35;;;;;;;8.73;6.20;;;26.40;99.90;;;;;;5072748;28;20047;-55
2023/07/18 04:32:00;;;;;;;7.75;5.97;;;26.40;99.90;;;;;;5055187;28;20032;-57
2023/07/18 04:34:26;;;;;;;10.57;6.00;;;26.40;99.90;;;;;;5071112;28;20037;-55
2023/07/18 04:36:52;;;;;;;10.02;6.97;;;26.50;99.90;;;;;;5073037;28;20028;-57
2023/07/18 04:39:18;;;;;;;8.30;6.40;;;26.60;99.90;;;;;;5072465;28;20040;-56
2023/07/18 04:41:43;;;;;;;11.52;6.18;;;26.60;99.90;;;;;;5073878;28;20020;-55
2023/07/18 04:44:09;;;;;;;8.77;6.05;;;26.60;99.90;;;;;;5073066;28;20098;-55
2023/07/18 04:46:35;;;;;;;9.52;5.20;;;26.60;99.90;;;;;;5072871;28;20031;-54
2023/07/18 04:49:01;;;;;;;9.27;5.72;;;26.70;99.90;;;;;;5072996;28;20032;-55
2023/07/18 04:51:26;;;;;;;9.00;5.68;;;26.80;99.90;;;;;;5073737;28;20086;-56
2023/07/18 04:53:52;;;;;;;7.60;5.68;;;26.90;99.90;;;;;;5073197;28;20032;-56
2023/07/18 04:56:18;;;;;;;7.10;5.30;;;27.00;99.90;;;;;;5073053;28;20024;-58
2023/07/18 04:58:44;;;;;;;7.70;5.68;;;27.00;99.90;;;;;;5072600;28;20045;-55
2023/07/18 05:01:10;;;;;;;7.63;5.63;;;;;;;;;;5073490;28;20056;-57
2023/07/18 05:03:36;;;;;;;7.97;6.00;;;;;;;;;;5073041;28;20484;-57
2023/07/18 05:06:02;;;;;;;8.77;5.55;;;;;;;;;;5072586;28;20507;-57
2023/07/18 05:08:29;;;;;;;9.40;6.15;;;;;;;;;;5072426;28;20036;-56
2023/07/18 05:11:00;;;;;;;8.10;5.63;;;;;;;;;;5054661;28;20048;-56
2023/07/18 05:13:26;;;;;;;7.65;5.68;;;;;;;;;;5072768;28;20051;-55
2023/07/18 05:15:52;;;;;;;9.43;5.60;;;;;;;;;;5072902;28;20028;-56
2023/07/18 05:18:18;;;;;;;7.68;5.60;;;;;;;;;;5072390;28;20494;-55
2023/07/18 05:20:45;;;;;;;9.50;5.57;;;;;;;;;;5073003;28;20032;-56
2023/07/18 05:23:11;;;;;;;8.75;5.82;;;;;;;;;;5073111;28;20028;-57
2023/07/18 05:25:37;;;;;;;8.55;5.65;;;;;;;;;;5072064;28;20037;-57
2023/07/18 05:28:04;;;;;;;8.80;5.53;;;;;;;;;;5072315;28;20060;-58
2023/07/18 05:30:30;;;;;;;10.48;5.10;;;;;;;;;;5073206;28;20028;-57
2023/07/18 05:32:56;;;;;;;8.10;6.10;;;;;;;;;;5073245;28;20435;-55
2023/07/18 05:35:21;;;;;;;6.72;6.00;;;28.70;99.90;;;;;;5072157;28;20483;-58
2023/07/18 05:37:47;;;;;;;8.52;5.95;;;28.80;99.90;;;;;;5069754;28;20055;-57
2023/07/18 05:40:13;;;;;;;6.72;5.63;;;28.90;99.90;;;;;;5052629;28;20035;-57
2023/07/18 05:42:40;;;;;;;10.80;5.53;;;28.90;99.90;;;;;;5071807;28;20029;-58
2023/07/18 05:45:08;;;;;;;8.25;6.07;;;29.00;99.90;;;;;;5072333;28;20024;-57
2023/07/18 05:47:37;;;;;;;7.30;5.75;;;29.00;99.90;;;;;;5072182;28;20132;-56
2023/07/18 05:50:03;;;;;;;8.35;6.15;;;;;;;;;;5072285;28;20032;-56
2023/07/18 05:52:29;;;;;;;10.32;5.45;;;29.10;99.90;;;;;;5053110;28;20482;-56
2023/07/18 05:54:55;;;;;;;7.85;5.82;;;;;;;;;;5070923;28;20036;-57
2023/07/18 05:57:21;;;;;;;7.97;6.05;;;29.30;99.90;;;;;;5070965;28;20083;-56
2023/07/18 05:59:47;;;;;;;8.85;5.43;;;;;;;;;;5070741;28;20033;-57
2023/07/18 06:02:14;;;;;;;8.52;5.85;;;29.60;99.90;;;;;;5068041;28;20028;-57
2023/07/18 06:04:40;;;;;;;7.47;5.38;;;;;;;;;;5063814;28;20028;-58
2023/07/18 06:07:06;;;;;;;8.52;5.80;;;;;;;;;;5254223;22;20060;-55
2023/07/18 06:09:33;;;;;;;7.25;5.53;;;;;;;;;;4981300;28;20083;-54
2023/07/18 06:11:59;;;;;;;8.98;5.13;;;;;;;;;;5031958;28;20029;-55
2023/07/18 06:14:26;;;;;;;9.32;5.47;;;;;;;;;;5031838;28;20021;-55
2023/07/18 06:16:52;;;;;;;9.32;6.07;;;;;;;;;;5032285;28;20468;-55
2023/07/18 06:19:18;;;;;;;9.27;5.55;;;;;;;;;;5031968;28;20151;-55
2023/07/18 06:21:44;;;;;;;6.47;5.60;;;30.30;99.90;;;;;;4999976;28;20135;-55
2023/07/18 06:24:10;;;;;;;7.53;5.22;;;30.30;99.90;;;;;;5001699;28;20124;-54
2023/07/18 06:26:36;;;;;;;9.70;5.82;;;30.60;99.90;;;;;;5010396;28;20511;-56
2023/07/18 06:29:02;;;;;;;6.38;4.90;;;30.70;99.90;;;;;;5035866;28;20132;-55
2023/07/18 06:31:28;;;;;;;7.00;4.65;;;30.50;99.90;;;;;;5035132;28;20046;-54
2023/07/18 06:33:54;;;;;;;9.27;5.28;;;30.60;99.90;;;;;;5015291;28;20046;-55
2023/07/18 06:36:23;;;;;;;6.43;5.13;;;;;;;;;;5008151;28;20053;-55
2023/07/18 06:38:49;;;;;;;5.75;4.68;;;30.70;99.90;;;;;;5035653;28;20499;-55
2023/07/18 06:41:15;;;;;;;6.30;4.93;;;30.60;99.90;;;;;;5035377;28;20104;-56
2023/07/18 06:43:40;;;;;;;7.50;5.35;;;30.50;99.90;;;;;;5035174;28;20026;-55
2023/07/18 06:46:08;;;;;;;7.18;5.28;;;;;;;;;;5035957;28;20068;-54
2023/07/18 06:48:34;;;;;;;7.25;5.55;;;;;;;;;;5035278;28;20037;-54
2023/07/18 06:51:03;;;;;;;6.47;4.88;;;;;;;;;;5035567;28;20104;-56
2023/07/18 06:53:29;;;;;;;7.55;5.40;;;;;;;;;;4985847;28;20045;-55
2023/07/18 06:55:55;;;;;;;9.23;4.78;;;;;;;;;;5035169;28;20036;-55
2023/07/18 06:58:21;;;;;;;6.55;5.07;;;;;;;;;;5035352;28;20029;-54
2023/07/18 07:00:49;;;;;;;6.03;4.82;;;;;;;;;;5035259;28;20781;-55
2023/07/18 07:03:15;;;;;;;5.45;4.68;;;;;;;;;;5035727;28;20052;-54
2023/07/18 07:05:42;;;;;;;7.47;5.38;;;31.60;99.90;;;;;;5009702;28;20048;-55
2023/07/18 07:08:12;;;;;;;7.22;4.93;;;31.70;99.90;;;;;;5035174;28;20388;-55
2023/07/18 07:10:41;;;;;;;6.85;5.35;;;;;;;;;;5035090;28;20033;-54
2023/07/18 07:13:08;;;;;;;9.73;5.55;;;31.80;99.90;;;;;;5035087;28;20058;-56
2023/07/18 07:15:34;;;;;;;6.78;5.00;;;31.50;99.90;;;;;;5034338;28;20026;-55
2023/07/18 07:18:00;;;;;;;5.65;5.07;;;31.70;99.90;;;;;;5035254;28;20029;-55
2023/07/18 07:20:27;;;;;;;6.20;5.50;;;31.80;99.90;;;;;;4995294;28;20037;-55
2023/07/18 07:22:54;;;;;;;6.35;5.70;;;31.70;99.90;;;;;;5034010;28;20079;-54
2023/07/18 07:25:20;;;;;;;7.32;5.47;;;31.90;99.90;;;;;;5034254;28;20108;-54
2023/07/18 07:27:47;;;;;;;6.05;4.93;;;;;;;;;;5034048;28;20079;-54
2023/07/18 07:30:17;;;;;;;7.97;5.40;;;32.30;99.90;;;;;;5032602;28;20076;-54
2023/07/18 07:32:43;;;;;;;5.95;4.35;;;32.50;99.90;;;;;;5034328;28;20029;-55
2023/07/18 07:35:09;;;;;;;6.70;4.85;;;32.60;99.90;;;;;;5033804;28;20037;-53
2023/07/18 07:37:36;;;;;;;6.28;4.47;;;32.30;99.90;;;;;;5034081;28;21080;-54
2023/07/18 07:40:06;;;;;;;6.22;4.95;;;32.30;99.90;;;;;;5034817;28;20057;-56
2023/07/18 07:42:32;;;;;;;8.88;5.40;;;32.40;99.90;;;;;;4996980;28;20041;-54
2023/07/18 07:44:58;;;;;;;6.43;5.07;;;32.60;99.90;;;;;;5016189;28;20033;-53
2023/07/18 07:47:23;;;;;;;6.05;4.90;;;32.60;99.90;;;;;;5016520;28;20061;-54
2023/07/18 07:49:49;;;;;;;5.05;4.05;;;32.80;99.90;;;;;;5016656;28;20100;-56
2023/07/18 07:52:15;;;;;;;8.20;3.95;;;32.80;99.90;;;;;;5016586;28;20156;-54
2023/07/18 07:54:41;;;;;;;9.90;4.50;;;32.90;99.90;;;;;;5017032;28;20123;-56
2023/07/18 07:57:06;;;;;;;7.63;4.30;;;33.10;99.90;;;;;;5000244;28;20037;-53
2023/07/18 07:59:32;;;;;;;6.88;4.15;;;33.10;99.90;;;;;;5016625;28;20085;-55
2023/07/18 08:01:58;;;;;;;5.90;4.55;;;33.00;99.90;;;;;;5035134;28;20025;-54
2023/07/18 08:04:23;;;;;;;5.22;4.13;;;33.10;99.90;;;;;;5035287;28;20030;-55
2023/07/18 08:06:49;;;;;;;6.00;4.47;;;33.40;99.90;;;;;;5016568;28;20099;-55
2023/07/18 08:09:15;;;;;;;4.40;3.60;;;33.50;99.90;;;;;;5015723;28;20049;-56
2023/07/18 08:11:40;;;;;;;5.75;3.55;;;33.30;99.90;;;;;;5016917;28;20045;-56
2023/07/18 08:14:07;;;;;;;5.68;3.10;;;33.50;99.90;;;;;;5035267;28;20041;-55
2023/07/18 08:16:33;;;;;;;5.55;2.85;;;33.50;99.90;;;;;;5035287;28;20060;-54
2023/07/18 08:18:58;;;;;;;5.70;2.92;;;33.50;99.90;;;;;;5016521;28;20548;-54
2023/07/18 08:21:25;;;;;;;6.32;2.90;;;33.60;99.90;;;;;;5034952;28;20361;-55
2023/07/18 08:23:51;;;;;;;8.23;6.30;;;33.80;99.90;;;;;;5033104;28;20025;-56
2023/07/18 08:26:16;;;;;;;5.32;3.45;;;33.50;99.90;;;;;;5035173;28;20140;-57
2023/07/18 08:28:42;;;;;;;4.93;3.10;;;33.60;99.90;;;;;;5031375;28;20046;-55
2023/07/18 08:31:08;;;;;;;4.80;4.30;;;33.80;99.90;;;;;;5034142;28;20051;-54
2023/07/18 08:33:34;;;;;;;4.55;3.40;;;33.80;99.90;;;;;;5014802;28;20082;-55
2023/07/18 08:35:59;;;;;;;3.97;3.08;;;33.60;99.90;;;;;;5034605;28;20056;-55
2023/07/18 08:38:25;;;;;;;4.90;3.42;;;33.70;99.90;;;;;;4999711;28;20048;-55
2023/07/18 08:40:52;;;;;;;4.15;3.55;;;33.90;99.90;;;;;;5034651;28;20025;-56
2023/07/18 08:43:19;;;;;;;4.18;3.47;;;;;;;;;;5034336;28;20041;-55
2023/07/18 08:45:46;;;;;;;7.53;3.70;;;34.30;99.90;;;;;;5034352;28;20034;-55
2023/07/18 08:48:13;;;;;;;4.20;3.80;;;34.30;99.90;;;;;;5034433;28;20025;-55
2023/07/18 08:50:41;;;;;;;4.95;4.18;;;34.50;99.90;;;;;;5034802;28;20033;-55
2023/07/18 08:53:06;;;;;;;4.63;3.33;;;33.90;99.90;;;;;;5034229;28;20025;-55
2023/07/18 08:55:33;;;;;;;7.93;3.50;;;34.30;99.90;;;;;;5033130;28;20033;-57
2023/07/18 08:57:59;;;;;;;4.22;3.78;;;33.80;99.90;;;;;;5010213;28;20029;-55
2023/07/18 09:00:25;;;;;;;7.65;4.07;;;34.10;99.90;;;;;;5045385;28;20028;-57
2023/07/18 09:02:51;;;;;;;5.35;4.13;;;34.10;99.90;;;;;;4992898;28;20037;-55
2023/07/18 09:05:33;;;;;;;6.15;4.45;;;34.20;99.90;;;;;;5033763;28;20491;-55
2023/07/18 09:08:01;;;;;;;5.25;4.10;;;34.40;99.90;;;;;;4959493;28;20536;-55
2023/07/18 09:10:27;;;;;;;19.83;4.20;;;34.80;99.90;;;;;;4992582;28;20062;-55
2023/07/18 09:12:54;;;;;;;5.25;3.97;;;35.10;99.90;;;;;;4992616;28;20092;-55
2023/07/18 09:15:21;;;;;;;5.53;4.00;;;35.30;99.90;;;;;;4943832;28;20137;-55
2023/07/18 09:17:57;;;;;;;5.45;3.70;;;35.10;99.90;;;;;;4992373;28;20097;-56
2023/07/18 09:20:27;;;;;;;6.25;3.90;;;35.00;99.90;;;;;;4959673;28;20041;-55
2023/07/18 09:23:00;;;;;;;4.43;3.70;;;35.10;99.90;;;;;;4959723;28;20125;-56
2023/07/18 09:25:26;;;;;;;6.28;3.92;;;35.10;99.90;;;;;;4994051;28;20037;-54
2023/07/18 09:27:54;;;;;;;6.57;3.38;;;35.00;99.90;;;;;;5010237;28;20053;-54
2023/07/18 09:30:37;;;;;;;5.82;3.63;;;34.40;99.90;;;;;;5011565;28;20042;-54
2023/07/18 09:33:04;;;;;;;4.03;3.63;;;35.00;99.90;;;;;;5011778;28;20113;-55
2023/07/18 09:35:30;;;;;;;5.00;4.00;;;;;;;;;;5011675;28;20030;-55
2023/07/18 09:37:57;;;;;;;5.15;3.88;;;35.30;99.90;;;;;;4996477;28;20048;-56
2023/07/18 09:40:23;;;;;;;3.97;3.58;;;35.30;99.90;;;;;;5031228;28;20084;-55
2023/07/18 09:42:50;;;;;;;5.10;3.80;;;35.80;99.90;;;;;;5031479;28;20037;-56
2023/07/18 09:45:16;;;;;;;6.38;3.90;;;35.70;99.90;;;;;;5030979;28;20030;-55
2023/07/18 09:47:43;;;;;;;5.68;3.60;;;36.10;99.90;;;;;;5031374;28;20059;-54
2023/07/18 09:50:12;;;;;;;4.45;3.72;;;36.30;99.90;;;;;;4998032;28;20049;-56
2023/07/18 09:52:45;;;;;;;5.43;3.50;;;36.60;99.90;;;;;;5031139;28;20037;-55
2023/07/18 09:55:13;;;;;;;7.35;4.53;;;36.80;99.90;;;;;;5030496;28;20073;-55
2023/07/18 09:57:43;;;;;;;5.43;4.05;;;37.00;99.90;;;;;;5031278;28;20030;-56
2023/07/18 10:00:16;;;;;;;5.13;3.70;;;37.10;99.90;;;;;;5053457;28;20018;-55
2023/07/18 10:02:43;;;;;;;4.28;3.88;;;37.20;99.90;;;;;;5019805;28;20044;-55
2023/07/18 10:05:10;;;;;;;5.90;4.13;;;37.20;99.90;;;;;;5033623;28;20116;-54
2023/07/18 10:07:39;;;;;;;4.88;3.92;;;37.30;99.90;;;;;;5033010;28;20108;-55
2023/07/18 10:10:08;;;;;;;9.13;4.20;;;;;;;;;;5033589;28;20491;-56
2023/07/18 10:12:38;;;;;;;5.88;3.83;;;37.60;99.30;;;;;;5037767;28;20033;-55
2023/07/18 10:15:04;;;;;;;4.88;3.53;;;37.00;98.70;;;;;;5052705;28;20033;-55
2023/07/18 10:17:40;;;;;;;5.35;3.70;;;37.50;99.30;;;;;;5018000;28;20091;-55
2023/07/18 10:20:19;;;;;;;4.40;3.53;;;37.40;98.90;;;;;;5053312;28;20480;-55
2023/07/18 10:22:58;;;;;;;4.65;4.05;;;37.60;98.80;;;;;;5052969;28;20033;-55
2023/07/18 10:25:31;;;;;;;4.28;3.88;;;37.70;98.50;;;;;;5017892;28;20090;-55
2023/07/18 10:27:58;;;;;;;4.57;3.30;;;37.90;98.90;;;;;;5051490;28;20366;-55
2023/07/18 10:30:37;;;;;;;4.63;3.65;;;37.70;98.50;;;;;;5033137;28;20034;-54
2023/07/18 10:33:03;;;;;;;4.35;3.40;;;37.80;98.50;;;;;;5032741;28;20036;-55
2023/07/18 10:35:29;;;;;;;6.15;3.60;;;37.80;98.50;;;;;;5032766;28;20033;-54
2023/07/18 10:38:06;;;;;;;7.97;3.55;;;;;;;;;;5031264;28;20465;-58
2023/07/18 10:40:40;;;;;;;4.75;3.53;;;38.40;97.80;;;;;;5015170;28;20424;-55
2023/07/18 10:43:09;;;;;;;5.78;3.35;;;38.30;97.40;;;;;;4999849;28;20052;-54
2023/07/18 10:45:39;;;;;;;5.30;3.08;;;37.60;96.70;;;;;;5045907;28;20052;-55
2023/07/18 10:48:20;;;;;;;3.88;3.22;;;37.50;96.40;;;;;;5050100;28;20115;-55
2023/07/18 10:50:48;;;;;;;5.63;3.35;;;37.80;96.10;;;;;;5052618;28;20106;-55
2023/07/18 10:53:20;;;;;;;3.30;3.00;;;38.20;96.40;;;;;;5052495;28;20033;-55
2023/07/18 10:55:46;;;;;;;5.25;2.92;;;37.90;95.60;;;;;;5017695;28;20033;-55
2023/07/18 10:58:18;;;;;;;4.43;2.90;;;38.00;96.70;;;;;;5052496;28;20079;-55
2023/07/18 11:00:44;;;;;;;3.10;2.75;;;37.80;96.30;;;;;;5052509;28;20028;-55
2023/07/18 11:03:24;;;;;;;4.15;2.67;;;38.00;96.40;;;;;;5052624;28;20028;-54
2023/07/18 11:05:51;;;;;;;4.53;2.63;;;38.30;95.80;;;;;;5052440;28;20020;-54
2023/07/18 11:08:27;;;;;;;4.05;2.60;;;38.40;96.10;;;;;;5053903;28;20087;-53
2023/07/18 11:10:55;;;;;;;3.70;2.72;;;38.70;95.60;;;;;;5038816;28;20033;-53
2023/07/18 11:13:27;;;;;;;4.00;3.25;;;38.50;94.80;;;;;;5028988;28;20400;-54
2023/07/18 11:15:56;;;;;;;4.72;3.42;;;38.70;94.90;;;;;;5018176;28;20021;-55
2023/07/18 11:18:23;;;;;;;3.67;2.88;;;;;;;;;;5035844;28;20022;-55
2023/07/18 11:20:53;;;;;;;3.97;2.88;;;38.90;97.50;;;;;;5035982;28;20049;-55
2023/07/18 11:23:20;;;;;;;3.08;2.22;;;39.20;94.40;;;;;;5035864;28;20105;-55
2023/07/18 11:25:45;;;;;;;4.63;2.50;;;39.50;94.50;;;;;;5035857;28;20037;-55
2023/07/18 11:28:11;;;;;;;4.65;2.13;;;39.10;93.10;;;;;;5035748;28;20083;-54
2023/07/18 11:30:37;;;;;;;4.43;2.60;;;39.40;93.30;;;;;;5001171;28;20049;-54
2023/07/18 11:33:12;;;;;;;3.10;2.45;;;;;;;;;;5035890;28;20061;-54
2023/07/18 11:35:37;;;;;;;2.92;2.33;;;39.50;92.10;;;;;;5035718;28;20026;-54
2023/07/18 11:38:03;;;;;;;4.82;2.38;;;39.10;91.90;;;;;;5035583;28;20021;-54
2023/07/18 11:40:32;;;;;;;2.58;2.10;;;39.40;92.10;;;;;;5035807;28;20025;-55
2023/07/18 11:42:58;;;;;;;4.55;2.15;;;39.80;93.30;;;;;;5000793;28;20061;-54
2023/07/18 11:45:25;;;;;;;2.65;2.17;;;39.80;92.90;;;;;;4984455;28;20053;-55
2023/07/18 11:47:53;;;;;;;3.35;2.50;;;39.80;92.60;;;;;;5034154;28;20036;-56
2023/07/18 11:50:19;;;;;;;4.28;2.60;;;39.90;92.60;;;;;;5040057;28;20083;-55
2023/07/18 11:52:47;;;;;;;3.25;2.30;;;39.90;91.70;;;;;;5044806;28;20477;-55
2023/07/18 11:55:17;;;;;;;2.70;2.13;;;40.00;92.20;;;;;;5041493;28;20013;-56
2023/07/18 11:57:44;;;;;;;3.55;2.45;;;40.10;91.90;;;;;;5043962;28;20498;-55
2023/07/18 12:00:11;;;;;;;3.42;2.10;;;39.80;91.30;;;;;;5045714;28;20032;-55
2023/07/18 12:02:37;;;;;;;2.83;2.20;;;40.10;91.30;;;;;;4949890;28;20045;-55
2023/07/18 12:05:05;;;;;;;3.53;2.33;;;40.00;91.20;;;;;;5018306;28;20036;-57
2023/07/18 12:07:31;;;;;;;4.22;2.22;;;40.20;90.40;;;;;;5053596;28;20040;-56
2023/07/18 12:09:57;;;;;;;4.43;2.28;;;40.20;91.00;;;;;;5053875;28;20120;-56
2023/07/18 12:12:23;;;;;;;2.70;2.22;;;40.00;90.40;;;;;;5036815;28;20549;-56
2023/07/18 12:14:50;;;;;;;4.00;2.35;;;40.00;89.70;;;;;;4990237;28;20030;-55
2023/07/18 12:17:16;;;;;;;4.78;2.58;;;40.30;90.80;;;;;;5033529;28;20376;-57
2023/07/18 12:19:43;;;;;;;3.10;2.47;;;40.10;91.40;;;;;;4981814;28;20046;-56
2023/07/18 12:22:09;;;;;;;3.20;2.60;;;39.90;90.70;;;;;;5035631;28;20036;-57
2023/07/18 12:24:34;;;;;;;4.15;2.72;;;39.60;90.80;;;;;;4999558;28;20030;-57
2023/07/18 12:27:00;;;;;;;3.28;2.28;;;39.70;91.20;;;;;;5015149;28;20088;-56
2023/07/18 12:29:26;;;;;;;3.22;2.47;;;39.80;90.50;;;;;;5033247;28;20389;-57
2023/07/18 12:31:53;;;;;;;3.45;2.33;;;39.40;90.30;;;;;;5033426;28;20026;-56
2023/07/18 12:34:19;;;;;;;3.33;2.45;;;39.50;90.50;;;;;;5032933;28;20499;-57
2023/07/18 12:36:45;;;;;;;3.53;2.70;;;39.60;90.10;;;;;;5033409;28;20386;-57
2023/07/18 12:39:12;;;;;;;3.30;2.42;;;40.00;90.50;;;;;;4998372;28;20133;-57
2023/07/18 12:41:38;;;;;;;3.42;2.20;;;39.60;89.20;;;;;;4998464;28;20034;-57
2023/07/18 12:44:04;;;;;;;3.72;2.50;;;39.90;89.50;;;;;;5033386;28;20026;-57
2023/07/18 12:46:29;;;;;;;7.47;2.67;;;40.10;91.10;;;;;;5033264;28;20029;-56
2023/07/18 12:48:56;;;;;;;4.15;2.05;;;40.00;88.00;;;;;;5033036;28;20401;-57
2023/07/18 12:51:23;;;;;;;3.45;2.60;;;38.70;87.90;;;;;;5032157;28;20033;-57
2023/07/18 12:53:49;;;;;;;3.00;2.47;;;39.00;89.60;;;;;;5033087;28;20136;-57
2023/07/18 12:56:16;;;;;;;2.90;2.30;;;39.30;89.90;;;;;;5033176;28;20075;-57
2023/07/18 12:58:43;;;;;;;3.35;2.47;;;38.10;90.00;;;;;;5032936;28;20073;-57
2023/07/18 13:01:09;;;;;;;16.48;2.67;;;38.90;90.20;;;;;;5033116;28;20063;-57